Terminal Aerodrome Forecast
Issued by NWS Brownsville, TX

Home | Current Version | Previous Version | Text Only | Print | Product List | Glossary On
Versions: 1 2 3 4 5 6 7 8 9 10 11 12 13
000
FTUS44 KBRO 251138
TAFHRL
TAF
KHRL 251138Z 2512/2612 15009KT P6SM FEW020 FEW250
     FM251500 15017G23KT P6SM SCT040 SCT250
     FM260100 14015KT P6SM SCT030 BKN250
     FM260600 16007KT P6SM SCT020 OVC250=

USA.gov is the U.S. government's official web portal to all federal, state and local government web resources and services.